Time;durP1;ratioP1;P1;durP2;ratioP2;P2;SDS_P1;SDS_P2;PMS_P1;PMS_P2;Temp;Humidity;BMP_temperature;BMP_pressure;BME280_temperature;BME280_humidity;BME280_pressure;Samples;Min_cycle;Max_cycle;Signal;HPM_P1;HPM_P2
2023/08/05 00:01:45;;;;;;;2.30;1.20;;;18.10;92.90;;;;;;5052998;28;20468;-68
2023/08/05 00:04:12;;;;;;;2.70;1.40;;;18.10;93.00;;;;;;5053334;28;20495;-68
2023/08/05 00:06:39;;;;;;;2.47;1.37;;;18.20;93.10;;;;;;5052870;28;20511;-68
2023/08/05 00:09:06;;;;;;;5.80;2.30;;;18.20;93.10;;;;;;5052943;28;20500;-68
2023/08/05 00:11:34;;;;;;;2.87;1.33;;;18.10;93.10;;;;;;5053118;28;20877;-68
2023/08/05 00:14:02;;;;;;;2.37;1.30;;;18.20;93.20;;;;;;5054248;28;21005;-68
2023/08/05 00:16:33;;;;;;;3.90;1.20;;;18.20;93.30;;;;;;5056788;28;20520;-68
2023/08/05 00:19:00;;;;;;;2.23;1.10;;;18.20;93.40;;;;;;5057189;28;20526;-68
2023/08/05 00:21:27;;;;;;;2.63;1.20;;;18.20;93.30;;;;;;5056952;28;20509;-68
2023/08/05 00:23:54;;;;;;;4.00;1.20;;;18.20;93.30;;;;;;5056573;28;20465;-69
2023/08/05 00:26:21;;;;;;;2.83;1.40;;;18.20;93.40;;;;;;5056490;28;20983;-68
2023/08/05 00:28:50;;;;;;;3.30;1.60;;;18.20;93.40;;;;;;5056515;28;20980;-69
2023/08/05 00:31:17;;;;;;;3.93;1.17;;;18.20;93.50;;;;;;5056545;28;20973;-68
2023/08/05 00:33:44;;;;;;;2.23;1.07;;;18.20;93.50;;;;;;5056707;28;20529;-68
2023/08/05 00:36:16;;;;;;;3.07;1.23;;;18.30;93.50;;;;;;5056602;28;20521;-68
2023/08/05 00:38:43;;;;;;;4.30;1.47;;;18.30;93.40;;;;;;5056539;28;20472;-68
2023/08/05 00:41:10;;;;;;;2.73;1.30;;;18.30;93.50;;;;;;5056422;28;20441;-68
2023/08/05 00:43:37;;;;;;;4.53;1.57;;;18.30;93.60;;;;;;5056477;28;20441;-70
2023/08/05 00:46:05;;;;;;;4.80;1.37;;;18.30;93.70;;;;;;5055960;28;20477;-68
2023/08/05 00:48:33;;;;;;;3.27;1.20;;;18.20;93.80;;;;;;5056368;28;20855;-68
2023/08/05 00:51:00;;;;;;;4.57;1.53;;;18.20;93.90;;;;;;5056302;28;20537;-68
2023/08/05 00:53:27;;;;;;;3.90;1.30;;;18.30;93.90;;;;;;5056517;28;20477;-68
2023/08/05 00:55:54;;;;;;;3.37;1.50;;;18.30;93.90;;;;;;5056208;28;20438;-68
2023/08/05 00:58:22;;;;;;;3.90;1.40;;;18.30;94.00;;;;;;5056362;28;20560;-68
2023/08/05 01:00:49;;;;;;;2.00;0.90;;;18.30;94.10;;;;;;5056118;28;20435;-68
2023/08/05 01:03:18;;;;;;;2.53;1.10;;;18.30;94.10;;;;;;5056257;28;20848;-68
2023/08/05 01:05:51;;;;;;;3.47;1.50;;;18.30;94.10;;;;;;5056127;28;20471;-68
2023/08/05 01:08:19;;;;;;;2.37;1.17;;;18.30;94.30;;;;;;5055836;28;20510;-68
2023/08/05 01:10:48;;;;;;;3.33;1.40;;;18.20;94.40;;;;;;5055889;28;20489;-68
2023/08/05 01:13:15;;;;;;;3.17;1.63;;;18.20;94.40;;;;;;5055809;28;20512;-68
2023/08/05 01:15:42;;;;;;;2.80;2.00;;;18.20;94.40;;;;;;5056004;28;20427;-68
2023/08/05 01:18:10;;;;;;;2.70;1.30;;;18.20;94.40;;;;;;5055652;28;20447;-69
2023/08/05 01:20:47;;;;;;;5.97;2.10;;;18.10;94.50;;;;;;5055935;28;20470;-68
2023/08/05 01:23:21;;;;;;;3.20;1.60;;;18.10;94.60;;;;;;5055968;28;20466;-68
2023/08/05 01:25:50;;;;;;;2.57;1.20;;;18.10;94.70;;;;;;5054558;28;20948;-68
2023/08/05 01:28:20;;;;;;;2.77;1.40;;;18.10;94.70;;;;;;5055756;28;20513;-68
2023/08/05 01:30:49;;;;;;;3.23;1.20;;;18.10;94.80;;;;;;5055723;28;20513;-68
2023/08/05 01:33:18;;;;;;;2.93;1.30;;;18.10;94.80;;;;;;5055401;28;20529;-68
2023/08/05 01:35:48;;;;;;;2.57;1.30;;;18.10;94.90;;;;;;5055778;28;20465;-69
2023/08/05 01:38:15;;;;;;;2.90;1.40;;;18.10;95.00;;;;;;5055630;28;20427;-68
2023/08/05 01:40:42;;;;;;;3.80;1.10;;;18.10;95.00;;;;;;5055591;28;20853;-68
2023/08/05 01:43:11;;;;;;;2.47;1.13;;;18.10;95.10;;;;;;5055501;28;20480;-68
2023/08/05 01:45:38;;;;;;;3.83;1.60;;;18.10;95.10;;;;;;5055493;28;20467;-68
2023/08/05 01:48:05;;;;;;;2.57;1.10;;;18.10;95.10;;;;;;5055392;28;20512;-68
2023/08/05 01:50:33;;;;;;;2.80;1.47;;;18.00;95.30;;;;;;5055422;28;20690;-68
2023/08/05 01:53:00;;;;;;;2.40;1.17;;;18.00;95.30;;;;;;5054902;28;20956;-68
2023/08/05 01:55:27;;;;;;;2.40;1.17;;;18.00;95.30;;;;;;5055305;28;20833;-68
2023/08/05 01:57:54;;;;;;;2.93;1.13;;;18.00;95.40;;;;;;5054902;28;20495;-68
2023/08/05 02:00:22;;;;;;;2.20;1.00;;;17.90;95.50;;;;;;5054983;28;20917;-68
2023/08/05 02:02:49;;;;;;;4.30;1.60;;;17.90;95.70;;;;;;5055205;28;20465;-68
2023/08/05 02:05:17;;;;;;;2.80;1.83;;;17.80;95.80;;;;;;5055121;28;20844;-68
2023/08/05 02:07:45;;;;;;;2.60;1.87;;;17.90;96.00;;;;;;5054548;28;20468;-68
2023/08/05 02:10:12;;;;;;;2.77;1.83;;;17.90;96.00;;;;;;5054529;28;20557;-68
2023/08/05 02:12:39;;;;;;;4.03;2.50;;;17.80;96.20;;;;;;5054958;28;20462;-69
2023/08/05 02:15:07;;;;;;;3.30;2.00;;;17.80;96.50;;;;;;5054612;28;21019;-68
2023/08/05 02:17:36;;;;;;;2.67;1.70;;;17.80;96.70;;;;;;5054801;28;20493;-69
2023/08/05 02:20:04;;;;;;;4.37;2.00;;;17.80;96.80;;;;;;5054464;28;20534;-68
2023/08/05 02:22:31;;;;;;;3.67;2.07;;;17.90;96.90;;;;;;5054711;28;20437;-68
2023/08/05 02:24:58;;;;;;;3.23;2.10;;;17.90;97.00;;;;;;5054746;28;20438;-68
2023/08/05 02:27:25;;;;;;;4.00;2.13;;;18.00;97.20;;;;;;5054550;28;20575;-68
2023/08/05 02:29:52;;;;;;;3.83;2.50;;;18.00;97.10;;;;;;5054473;28;20443;-68
2023/08/05 02:32:18;;;;;;;3.70;2.57;;;18.00;97.00;;;;;;5054087;28;20944;-68
2023/08/05 02:34:47;;;;;;;3.93;2.50;;;18.00;97.00;;;;;;5054344;28;20515;-68
2023/08/05 02:37:14;;;;;;;2.77;1.70;;;18.00;97.10;;;;;;5054046;28;20476;-68
2023/08/05 02:39:41;;;;;;;4.10;2.47;;;18.00;97.10;;;;;;5053911;28;20477;-68
2023/08/05 02:42:08;;;;;;;3.77;2.60;;;18.00;97.20;;;;;;5054237;28;20433;-68
2023/08/05 02:44:35;;;;;;;2.47;1.53;;;18.00;97.30;;;;;;5054146;28;20525;-68
2023/08/05 02:47:07;;;;;;;2.90;1.80;;;18.00;97.30;;;;;;5054070;28;20512;-68
2023/08/05 02:49:35;;;;;;;4.70;1.60;;;18.00;97.30;;;;;;5053857;28;20520;-68
2023/08/05 02:52:04;;;;;;;5.60;2.10;;;18.00;97.20;;;;;;5053966;28;20488;-68
2023/08/05 02:54:31;;;;;;;3.10;1.50;;;18.00;97.30;;;;;;5053996;28;20482;-68
2023/08/05 02:56:58;;;;;;;3.23;2.23;;;18.00;97.70;;;;;;5053632;28;20442;-68
2023/08/05 02:59:25;;;;;;;2.83;1.90;;;18.00;97.60;;;;;;5053536;28;20474;-68
2023/08/05 03:01:52;;;;;;;3.07;1.90;;;17.90;97.70;;;;;;5053840;28;20434;-68
2023/08/05 03:04:19;;;;;;;3.83;1.57;;;18.00;97.90;;;;;;5053894;28;20513;-68
2023/08/05 03:06:46;;;;;;;3.37;1.60;;;17.90;97.90;;;;;;5053609;28;20497;-68
2023/08/05 03:09:14;;;;;;;3.10;1.90;;;17.90;98.00;;;;;;5053544;28;20552;-68
2023/08/05 03:11:41;;;;;;;2.73;1.83;;;17.90;98.30;;;;;;5053735;28;20461;-68
2023/08/05 03:14:08;;;;;;;3.17;1.70;;;17.90;98.40;;;;;;5053847;28;20495;-68
2023/08/05 03:16:35;;;;;;;3.17;1.97;;;17.90;98.40;;;;;;5053640;28;20469;-68
2023/08/05 03:19:02;;;;;;;2.67;1.33;;;17.90;98.30;;;;;;5053776;28;20498;-68
2023/08/05 03:21:29;;;;;;;3.13;1.80;;;17.80;98.20;;;;;;5053558;28;20473;-69
2023/08/05 03:23:56;;;;;;;3.20;1.23;;;17.80;98.00;;;;;;5053851;28;20426;-68
2023/08/05 03:26:25;;;;;;;2.50;1.23;;;17.70;97.70;;;;;;5053454;28;20852;-68
2023/08/05 03:28:52;;;;;;;2.70;1.40;;;17.70;97.40;;;;;;5053483;28;20519;-68
2023/08/05 03:31:19;;;;;;;3.50;1.77;;;17.70;97.40;;;;;;5053483;28;20591;-68
2023/08/05 03:33:45;;;;;;;3.37;1.93;;;17.60;97.50;;;;;;5053709;28;20481;-67
2023/08/05 03:36:12;;;;;;;5.43;2.10;;;17.60;97.80;;;;;;5053452;28;20520;-68
2023/08/05 03:38:41;;;;;;;2.93;1.83;;;17.60;98.00;;;;;;5053400;28;20531;-68
2023/08/05 03:41:13;;;;;;;3.43;2.30;;;17.60;98.30;;;;;;5053415;28;20465;-68
2023/08/05 03:43:41;;;;;;;7.10;2.60;;;17.60;98.50;;;;;;5053545;28;20454;-68
2023/08/05 03:46:08;;;;;;;5.20;2.80;;;17.60;98.70;;;;;;5053369;28;20854;-68
2023/08/05 03:48:37;;;;;;;2.80;1.73;;;17.60;98.80;;;;;;5053948;28;20510;-68
2023/08/05 03:51:04;;;;;;;3.40;2.33;;;17.50;98.90;;;;;;5057402;28;20436;-67
2023/08/05 03:53:31;;;;;;;3.10;1.90;;;17.50;99.10;;;;;;5057332;28;20430;-68
2023/08/05 03:55:58;;;;;;;3.20;1.63;;;17.40;99.30;;;;;;5057308;28;20469;-68
2023/08/05 03:58:26;;;;;;;4.50;2.43;;;17.40;99.40;;;;;;5057796;28;20454;-68
2023/08/05 04:00:54;;;;;;;5.90;2.50;;;17.40;99.60;;;;;;5057266;28;20439;-68
2023/08/05 04:03:22;;;;;;;2.90;2.00;;;17.40;99.60;;;;;;5057250;28;20515;-68
2023/08/05 04:05:49;;;;;;;3.47;2.07;;;17.40;99.80;;;;;;5057183;28;20434;-68
2023/08/05 04:08:17;;;;;;;3.13;2.23;;;17.40;99.90;;;;;;5056589;28;21033;-71
2023/08/05 04:10:44;;;;;;;2.70;1.50;;;17.30;99.90;;;;;;5057179;28;20564;-68
2023/08/05 04:13:12;;;;;;;2.63;1.53;;;17.40;99.90;;;;;;5057088;28;20434;-68
2023/08/05 04:15:39;;;;;;;3.63;2.13;;;17.40;99.90;;;;;;5056982;28;20439;-68
2023/08/05 04:18:07;;;;;;;3.60;2.00;;;17.40;99.90;;;;;;5056912;28;20438;-68
2023/08/05 04:20:38;;;;;;;3.50;1.47;;;17.30;99.90;;;;;;5056597;28;20520;-68
2023/08/05 04:23:08;;;;;;;3.03;1.63;;;17.20;99.90;;;;;;5056545;28;20434;-68
2023/08/05 04:25:35;;;;;;;4.30;1.90;;;17.20;99.90;;;;;;5057171;28;20438;-68
2023/08/05 04:28:02;;;;;;;3.50;2.50;;;17.20;99.90;;;;;;5056511;28;20469;-68
2023/08/05 04:30:29;;;;;;;3.97;2.90;;;17.20;99.90;;;;;;5056720;28;20432;-68
2023/08/05 04:32:57;;;;;;;4.40;2.50;;;17.20;99.90;;;;;;5056628;28;20524;-68
2023/08/05 04:35:25;;;;;;;3.93;2.77;;;17.30;99.90;;;;;;5056680;28;20520;-68
2023/08/05 04:37:52;;;;;;;4.10;2.70;;;17.30;99.90;;;;;;5056218;28;20483;-68
2023/08/05 04:40:19;;;;;;;5.93;2.20;;;17.30;99.90;;;;;;5056262;28;20831;-68
2023/08/05 04:42:46;;;;;;;4.53;3.50;;;17.30;99.90;;;;;;5056487;28;20524;-68
2023/08/05 04:45:13;;;;;;;5.03;2.47;;;17.30;99.90;;;;;;5056113;28;20438;-68
2023/08/05 04:47:41;;;;;;;4.83;2.80;;;17.30;99.90;;;;;;5056004;28;20480;-68
2023/08/05 04:50:08;;;;;;;5.50;2.30;;;17.30;99.90;;;;;;5056361;28;20429;-68
2023/08/05 04:52:37;;;;;;;4.00;2.83;;;17.30;99.90;;;;;;5056264;28;20469;-68
2023/08/05 04:55:09;;;;;;;4.00;2.50;;;17.30;99.90;;;;;;5056234;28;20433;-68
2023/08/05 04:57:36;;;;;;;4.63;3.53;;;17.30;99.90;;;;;;5056222;28;20429;-68
2023/08/05 05:00:04;;;;;;;5.10;3.47;;;17.30;99.90;;;;;;5054734;28;20434;-68
2023/08/05 05:02:31;;;;;;;6.77;3.97;;;17.30;99.90;;;;;;5055987;28;20475;-68
2023/08/05 05:04:58;;;;;;;4.60;3.23;;;17.30;99.90;;;;;;5055763;28;20433;-68
2023/08/05 05:07:25;;;;;;;3.70;3.10;;;17.30;99.90;;;;;;5055561;28;20473;-68
2023/08/05 05:09:54;;;;;;;4.03;3.13;;;17.30;99.90;;;;;;5055574;28;20509;-68
2023/08/05 05:12:21;;;;;;;4.73;3.80;;;17.40;99.90;;;;;;5056016;28;20524;-68
2023/08/05 05:14:48;;;;;;;4.50;3.00;;;17.40;99.90;;;;;;5055118;28;20441;-68
2023/08/05 05:17:16;;;;;;;4.57;3.50;;;17.30;99.90;;;;;;5055384;28;20491;-68
2023/08/05 05:19:43;;;;;;;3.80;2.70;;;17.30;99.90;;;;;;5055517;28;21004;-68
2023/08/05 05:22:11;;;;;;;4.53;2.90;;;17.30;99.90;;;;;;5055496;28;20430;-68
2023/08/05 05:24:38;;;;;;;4.40;2.73;;;17.30;99.90;;;;;;5055246;28;21008;-69
2023/08/05 05:27:07;;;;;;;6.33;3.10;;;17.30;99.90;;;;;;5053873;28;20516;-68
2023/08/05 05:29:35;;;;;;;4.20;2.70;;;17.40;99.90;;;;;;5055820;28;20440;-68
2023/08/05 05:32:02;;;;;;;4.67;2.50;;;17.40;99.90;;;;;;5054645;28;20471;-68
2023/08/05 05:34:29;;;;;;;7.93;3.40;;;17.30;99.90;;;;;;5055277;28;20528;-68
2023/08/05 05:36:55;;;;;;;4.07;3.20;;;17.30;99.90;;;;;;5055090;28;20465;-68
2023/08/05 05:39:23;;;;;;;4.70;3.27;;;17.30;99.90;;;;;;5055412;28;20442;-68
2023/08/05 05:41:50;;;;;;;4.97;3.33;;;17.30;99.90;;;;;;5055470;28;20430;-68
2023/08/05 05:44:18;;;;;;;4.63;2.67;;;17.30;99.90;;;;;;5055304;28;20476;-67
2023/08/05 05:46:45;;;;;;;3.20;2.70;;;17.30;99.90;;;;;;5055327;28;20955;-68
2023/08/05 05:49:12;;;;;;;4.23;2.97;;;17.30;99.90;;;;;;5053332;28;20839;-68
2023/08/05 05:51:39;;;;;;;3.80;2.63;;;17.30;99.90;;;;;;5054251;28;20447;-68
2023/08/05 05:54:05;;;;;;;4.80;3.60;;;17.40;99.90;;;;;;5054944;28;20524;-70
2023/08/05 05:56:32;;;;;;;4.80;3.40;;;17.40;99.90;;;;;;5055185;28;20957;-68
2023/08/05 05:59:02;;;;;;;4.50;3.37;;;17.30;99.90;;;;;;5054485;28;20512;-68
2023/08/05 06:01:30;;;;;;;6.27;4.20;;;17.40;99.90;;;;;;5054829;28;20442;-68
2023/08/05 06:03:57;;;;;;;5.23;3.50;;;17.30;99.90;;;;;;5055288;28;20438;-67
2023/08/05 06:06:24;;;;;;;4.50;2.73;;;17.40;99.90;;;;;;5054077;28;20449;-69
2023/08/05 06:08:51;;;;;;;4.77;2.80;;;17.30;99.90;;;;;;5054960;28;20559;-68
2023/08/05 06:11:18;;;;;;;5.40;3.20;;;17.30;99.90;;;;;;5054523;28;20549;-68
2023/08/05 06:13:45;;;;;;;4.30;3.23;;;17.30;99.90;;;;;;5054937;28;20864;-68
2023/08/05 06:16:15;;;;;;;5.43;4.10;;;17.30;99.90;;;;;;5053851;28;20528;-68
2023/08/05 06:18:43;;;;;;;3.83;3.30;;;17.20;99.90;;;;;;5054901;28;20518;-67
2023/08/05 06:21:10;;;;;;;6.53;3.73;;;17.30;99.90;;;;;;5054861;28;20434;-68
2023/08/05 06:23:37;;;;;;;4.80;3.83;;;17.30;99.90;;;;;;5054740;28;20525;-68
2023/08/05 06:26:04;;;;;;;5.50;3.50;;;17.40;99.90;;;;;;5054736;28;20877;-68
2023/08/05 06:28:35;;;;;;;4.27;3.30;;;17.30;99.90;;;;;;5054607;28;20505;-68
2023/08/05 06:31:02;;;;;;;7.77;4.40;;;17.40;99.90;;;;;;5053825;28;20517;-68
2023/08/05 06:33:29;;;;;;;5.77;3.60;;;17.40;99.90;;;;;;5054706;28;20841;-68
2023/08/05 06:35:57;;;;;;;5.60;3.90;;;17.30;99.90;;;;;;5054204;28;20465;-70
2023/08/05 06:38:26;;;;;;;4.30;3.53;;;17.40;99.90;;;;;;5054396;28;20986;-68
2023/08/05 06:40:53;;;;;;;10.17;4.73;;;17.40;99.90;;;;;;5054067;28;20441;-68
2023/08/05 06:43:20;;;;;;;7.23;4.63;;;17.40;99.90;;;;;;5053385;28;20519;-68
2023/08/05 06:45:47;;;;;;;8.13;4.43;;;17.40;99.90;;;;;;5052766;28;20504;-68
2023/08/05 06:48:14;;;;;;;7.80;4.67;;;17.40;99.90;;;;;;5053358;28;20492;-68
2023/08/05 06:50:40;;;;;;;5.70;4.90;;;17.40;99.90;;;;;;5053954;28;20520;-68
2023/08/05 06:53:08;;;;;;;7.17;4.13;;;17.40;99.90;;;;;;5053573;28;20525;-68
2023/08/05 06:55:35;;;;;;;5.80;4.77;;;17.40;99.90;;;;;;5052965;28;20516;-68
2023/08/05 06:58:03;;;;;;;5.30;4.17;;;17.40;99.90;;;;;;5054201;28;20491;-68
2023/08/05 07:00:30;;;;;;;4.43;3.50;;;17.40;99.90;;;;;;5053656;28;20446;-68
2023/08/05 07:02:58;;;;;;;6.80;3.90;;;17.40;99.90;;;;;;5053621;28;20508;-68
2023/08/05 07:05:25;;;;;;;5.40;3.90;;;17.40;99.90;;;;;;5053819;28;20528;-68
2023/08/05 07:07:52;;;;;;;5.53;4.50;;;17.40;99.90;;;;;;5053812;28;20901;-68
2023/08/05 07:10:20;;;;;;;5.17;4.47;;;17.40;99.90;;;;;;5053847;28;20541;-68
2023/08/05 07:12:47;;;;;;;5.50;4.57;;;17.50;99.90;;;;;;5053947;28;20516;-68
2023/08/05 07:15:14;;;;;;;6.37;4.60;;;17.50;99.90;;;;;;5053873;28;20533;-68
2023/08/05 07:17:41;;;;;;;6.10;4.77;;;17.50;99.90;;;;;;5053523;28;20520;-68
2023/08/05 07:20:09;;;;;;;7.73;4.93;;;17.60;99.90;;;;;;5053756;28;20438;-68
2023/08/05 07:22:36;;;;;;;7.70;5.83;;;17.70;99.90;;;;;;5053344;28;20522;-68
2023/08/05 07:25:03;;;;;;;5.70;4.33;;;17.70;99.90;;;;;;5052683;28;20520;-68
2023/08/05 07:27:32;;;;;;;7.43;3.90;;;17.70;99.90;;;;;;5053675;28;20434;-69
2023/08/05 07:29:59;;;;;;;5.77;4.63;;;17.70;99.90;;;;;;5053744;28;20509;-67
2023/08/05 07:32:25;;;;;;;8.23;4.77;;;17.70;99.90;;;;;;5053090;28;20512;-68
2023/08/05 07:34:56;;;;;;;6.60;4.80;;;17.70;99.90;;;;;;5053424;28;20528;-69
2023/08/05 07:37:24;;;;;;;5.37;3.80;;;17.80;99.90;;;;;;5053356;28;20433;-68
2023/08/05 07:39:51;;;;;;;6.17;4.03;;;17.80;99.90;;;;;;5053151;28;20960;-70
2023/08/05 07:42:20;;;;;;;6.50;4.23;;;17.80;99.90;;;;;;5053395;28;20534;-68
2023/08/05 07:44:51;;;;;;;5.33;4.27;;;17.90;99.90;;;;;;5053349;28;20438;-67
2023/08/05 07:47:18;;;;;;;6.53;4.20;;;18.00;99.90;;;;;;5053376;28;20432;-72
2023/08/05 07:49:45;;;;;;;5.67;3.67;;;18.00;99.90;;;;;;5052941;28;20569;-68
2023/08/05 07:52:12;;;;;;;7.00;4.20;;;18.00;99.90;;;;;;5053282;28;20791;-68
2023/08/05 07:54:39;;;;;;;6.90;4.10;;;18.00;99.90;;;;;;5053266;28;20521;-68
2023/08/05 07:57:07;;;;;;;5.77;4.70;;;18.00;99.90;;;;;;5053219;28;20441;-68
2023/08/05 07:59:34;;;;;;;5.93;4.67;;;18.00;99.90;;;;;;5052898;28;20443;-68
2023/08/05 08:02:05;;;;;;;6.47;5.27;;;18.00;99.90;;;;;;5052880;28;20434;-68
2023/08/05 08:04:34;;;;;;;5.67;3.97;;;18.00;99.90;;;;;;5052899;28;20480;-68
2023/08/05 08:07:00;;;;;;;6.20;4.40;;;18.10;99.90;;;;;;5053127;28;20525;-68
2023/08/05 08:09:27;;;;;;;5.30;4.67;;;18.10;99.90;;;;;;5052685;28;21028;-68
2023/08/05 08:11:54;;;;;;;5.80;4.00;;;18.20;99.90;;;;;;5053095;28;20513;-68
2023/08/05 08:14:21;;;;;;;6.33;4.60;;;18.20;99.90;;;;;;5052744;28;20438;-68
2023/08/05 08:16:48;;;;;;;5.30;3.57;;;18.20;99.90;;;;;;5052767;28;20996;-68
2023/08/05 08:19:18;;;;;;;4.90;4.17;;;18.20;99.90;;;;;;5053092;28;20438;-68
2023/08/05 08:21:45;;;;;;;5.47;4.20;;;18.20;99.90;;;;;;5053419;28;20525;-68
2023/08/05 08:24:12;;;;;;;8.10;4.00;;;18.20;99.90;;;;;;5052896;28;20434;-68
2023/08/05 08:26:39;;;;;;;8.37;3.93;;;18.30;99.90;;;;;;5053168;28;20474;-68
2023/08/05 08:29:06;;;;;;;4.50;3.93;;;18.40;99.90;;;;;;5053024;28;20509;-69
2023/08/05 08:31:33;;;;;;;5.53;4.23;;;18.50;99.90;;;;;;5052785;28;20475;-68
2023/08/05 08:34:01;;;;;;;5.37;3.87;;;18.50;99.90;;;;;;5053039;28;20474;-68
2023/08/05 08:36:29;;;;;;;5.47;4.53;;;18.60;99.90;;;;;;5056592;28;20513;-68
2023/08/05 08:38:56;;;;;;;7.10;4.03;;;18.70;99.80;;;;;;5056401;28;20451;-68
2023/08/05 08:41:25;;;;;;;9.80;4.30;;;18.70;99.10;;;;;;5056730;28;20463;-68
2023/08/05 08:43:54;;;;;;;8.03;3.90;;;18.70;98.90;;;;;;5056380;28;20951;-67
2023/08/05 08:46:22;;;;;;;5.73;4.30;;;18.70;98.70;;;;;;5056631;28;20829;-68
2023/08/05 08:48:50;;;;;;;7.60;4.43;;;18.80;98.90;;;;;;5056176;28;21083;-68
2023/08/05 08:51:20;;;;;;;5.20;3.80;;;18.80;98.80;;;;;;5056493;28;20439;-68
2023/08/05 08:53:51;;;;;;;4.97;4.40;;;18.90;98.80;;;;;;5056382;28;20932;-68
2023/08/05 08:56:18;;;;;;;4.47;3.60;;;18.90;98.90;;;;;;5056326;28;20513;-68
2023/08/05 08:58:45;;;;;;;5.40;4.33;;;19.00;99.00;;;;;;5056056;28;20542;-68
2023/08/05 09:01:16;;;;;;;5.00;3.50;;;19.10;99.10;;;;;;5056026;28;20526;-68
2023/08/05 09:03:44;;;;;;;5.63;3.90;;;19.10;98.80;;;;;;5056077;28;20426;-68
2023/08/05 09:06:11;;;;;;;6.33;3.27;;;19.10;98.60;;;;;;5056240;28;20485;-68
2023/08/05 09:08:38;;;;;;;4.63;2.97;;;19.20;98.30;;;;;;5056141;28;20658;-68
2023/08/05 09:11:06;;;;;;;5.80;3.23;;;19.20;98.10;;;;;;5056059;28;20470;-68
2023/08/05 09:13:33;;;;;;;5.10;3.63;;;19.20;98.30;;;;;;5055801;28;20433;-69
2023/08/05 09:16:01;;;;;;;4.93;3.10;;;19.30;98.20;;;;;;5056214;28;20542;-68
2023/08/05 09:18:27;;;;;;;4.33;3.40;;;19.30;97.30;;;;;;5055743;28;20523;-68
2023/08/05 09:21:00;;;;;;;8.83;3.40;;;19.30;97.00;;;;;;5056110;28;20521;-68
2023/08/05 09:23:26;;;;;;;10.53;2.87;;;19.30;96.70;;;;;;5055631;28;20505;-68
2023/08/05 09:25:53;;;;;;;4.40;3.77;;;19.30;96.90;;;;;;5055587;28;21017;-68
2023/08/05 09:28:31;;;;;;;5.40;3.60;;;19.40;97.20;;;;;;5055800;28;20527;-68
2023/08/05 09:31:14;;;;;;;5.03;3.73;;;19.50;97.00;;;;;;5055452;28;20419;-68
2023/08/05 09:33:42;;;;;;;4.97;3.10;;;19.50;96.70;;;;;;5055761;28;20514;-68
2023/08/05 09:36:10;;;;;;;5.90;3.60;;;19.50;96.90;;;;;;5055634;28;20436;-68
2023/08/05 09:38:38;;;;;;;6.90;4.00;;;19.40;96.30;;;;;;5055612;28;20471;-68
2023/08/05 09:41:06;;;;;;;4.70;3.60;;;19.40;96.00;;;;;;5055324;28;20924;-68
2023/08/05 09:43:39;;;;;;;4.50;2.93;;;19.50;96.10;;;;;;5055265;28;20945;-68
2023/08/05 09:46:11;;;;;;;4.10;3.47;;;19.50;96.10;;;;;;5054547;28;20426;-67
2023/08/05 09:48:42;;;;;;;5.27;3.30;;;19.60;96.20;;;;;;5055497;28;20474;-67
2023/08/05 09:51:10;;;;;;;3.97;2.80;;;19.60;96.70;;;;;;5055112;28;20435;-68
2023/08/05 09:53:40;;;;;;;4.60;3.00;;;19.80;97.00;;;;;;5055306;28;20462;-68
2023/08/05 09:56:09;;;;;;;4.93;3.03;;;19.90;96.10;;;;;;5055464;28;20454;-72
2023/08/05 09:58:38;;;;;;;4.80;2.43;;;19.90;95.20;;;;;;5054926;28;20442;-69
2023/08/05 10:01:07;;;;;;;4.20;2.97;;;20.00;94.90;;;;;;5055466;28;20431;-68
2023/08/05 10:03:37;;;;;;;4.90;2.80;;;20.10;94.90;;;;;;5054841;28;20999;-68
2023/08/05 10:06:07;;;;;;;4.03;3.00;;;20.20;94.40;;;;;;5055134;28;20428;-68
2023/08/05 10:08:36;;;;;;;5.17;3.03;;;20.20;94.10;;;;;;5054965;28;20431;-68
2023/08/05 10:11:04;;;;;;;5.50;2.43;;;20.30;94.40;;;;;;5054513;28;20462;-68
2023/08/05 10:13:38;;;;;;;5.53;2.87;;;20.40;93.80;;;;;;5054989;28;20785;-68
2023/08/05 10:16:07;;;;;;;3.73;2.57;;;20.50;94.00;;;;;;5054983;28;20424;-68
2023/08/05 10:18:35;;;;;;;5.23;2.90;;;20.60;93.70;;;;;;5054834;28;20493;-68
2023/08/05 10:21:05;;;;;;;4.47;2.43;;;20.60;93.80;;;;;;5054416;28;20434;-68
2023/08/05 10:23:34;;;;;;;3.87;2.63;;;20.60;91.60;;;;;;5054747;28;20992;-68
2023/08/05 10:26:02;;;;;;;5.30;2.60;;;20.70;91.90;;;;;;5054443;28;20450;-68
2023/08/05 10:28:43;;;;;;;4.10;2.40;;;20.70;92.80;;;;;;5054742;28;20523;-68
2023/08/05 10:31:31;;;;;;;4.67;3.03;;;20.70;92.50;;;;;;5054325;28;20429;-68
2023/08/05 10:34:19;;;;;;;9.03;2.40;;;20.80;92.10;;;;;;5054632;28;20474;-69
2023/08/05 10:36:47;;;;;;;4.63;2.40;;;20.90;91.80;;;;;;5054192;28;20480;-68
2023/08/05 10:39:42;;;;;;;5.30;2.97;;;21.00;91.10;;;;;;5054083;28;20523;-68
2023/08/05 10:42:36;;;;;;;3.60;2.07;;;21.00;90.10;;;;;;5054096;28;20472;-68
2023/08/05 10:45:11;;;;;;;5.30;1.87;;;21.00;90.00;;;;;;5054386;28;20508;-68
2023/08/05 10:47:47;;;;;;;5.27;2.20;;;20.90;89.20;;;;;;5053957;28;20514;-68
2023/08/05 10:50:15;;;;;;;4.53;3.27;;;20.80;88.90;;;;;;5053927;28;21061;-68
2023/08/05 10:52:42;;;;;;;2.90;1.87;;;20.70;89.20;;;;;;5054461;28;20448;-69
2023/08/05 10:55:12;;;;;;;6.97;2.67;;;20.60;89.90;;;;;;5054216;28;20527;-68
2023/08/05 10:57:46;;;;;;;5.17;2.73;;;20.60;88.70;;;;;;5053828;28;20437;-68
2023/08/05 11:00:22;;;;;;;3.37;2.23;;;20.50;89.20;;;;;;5053738;28;20440;-68
2023/08/05 11:02:49;;;;;;;3.33;2.13;;;20.50;89.40;;;;;;5054072;28;20434;-68
2023/08/05 11:05:17;;;;;;;7.60;2.83;;;20.50;89.50;;;;;;5053630;28;20953;-68
2023/08/05 11:07:44;;;;;;;5.50;3.00;;;20.30;89.60;;;;;;5053639;28;20522;-68
2023/08/05 11:10:12;;;;;;;5.53;3.33;;;20.30;88.90;;;;;;5053421;28;20570;-68
2023/08/05 11:12:40;;;;;;;4.10;2.70;;;20.30;89.60;;;;;;5053607;28;20436;-68
2023/08/05 11:15:08;;;;;;;4.37;3.20;;;20.20;90.20;;;;;;5053891;28;20439;-68
2023/08/05 11:17:53;;;;;;;6.60;3.37;;;20.20;90.80;;;;;;5053498;28;20967;-68
2023/08/05 11:20:20;;;;;;;3.80;2.60;;;20.20;90.50;;;;;;5053648;28;20431;-68
2023/08/05 11:22:49;;;;;;;4.70;2.33;;;20.20;90.80;;;;;;5053674;28;20558;-68
2023/08/05 11:25:19;;;;;;;5.33;2.17;;;20.30;90.80;;;;;;5053760;28;20443;-68
2023/08/05 11:27:52;;;;;;;3.53;2.40;;;20.40;90.80;;;;;;5053618;28;20438;-69
2023/08/05 11:30:20;;;;;;;3.60;2.10;;;20.50;91.10;;;;;;5053596;28;20463;-68
2023/08/05 11:32:52;;;;;;;5.73;2.13;;;20.50;89.60;;;;;;5053368;28;20522;-68
2023/08/05 11:35:19;;;;;;;3.50;2.27;;;20.60;89.20;;;;;;5053643;28;20466;-68
2023/08/05 11:37:46;;;;;;;6.17;3.03;;;20.80;89.90;;;;;;5053165;28;20527;-68
2023/08/05 11:40:13;;;;;;;4.10;2.80;;;20.80;89.20;;;;;;5053576;28;20518;-68
2023/08/05 11:42:40;;;;;;;5.70;2.97;;;21.00;88.70;;;;;;5053535;28;20523;-68
2023/08/05 11:45:11;;;;;;;3.50;2.07;;;21.20;89.50;;;;;;5053539;28;20867;-68
2023/08/05 11:47:38;;;;;;;3.83;1.80;;;21.30;88.70;;;;;;5053208;28;21024;-68
2023/08/05 11:50:08;;;;;;;2.97;1.87;;;21.40;84.60;;;;;;5053534;28;20470;-68
2023/08/05 11:52:36;;;;;;;4.70;2.20;;;21.50;84.40;;;;;;5053413;28;20851;-68
2023/08/05 11:55:06;;;;;;;3.70;2.10;;;21.60;87.50;;;;;;5053479;28;20431;-68
2023/08/05 11:57:33;;;;;;;3.80;2.50;;;21.80;84.30;;;;;;5053623;28;20443;-68
2023/08/05 12:00:05;;;;;;;4.23;2.50;;;22.00;85.00;;;;;;5053319;28;20793;-73
2023/08/05 12:02:35;;;;;;;4.03;2.07;;;22.10;81.90;;;;;;5053493;28;20463;-70
2023/08/05 12:05:02;;;;;;;3.40;2.10;;;22.10;81.40;;;;;;5053322;28;20429;-68
2023/08/05 12:07:31;;;;;;;5.10;2.23;;;22.20;82.80;;;;;;5053295;28;20864;-68
2023/08/05 12:10:06;;;;;;;2.80;1.80;;;22.30;79.40;;;;;;5054028;28;20994;-68
2023/08/05 12:12:33;;;;;;;3.40;1.90;;;22.40;80.70;;;;;;5057530;28;20435;-68
2023/08/05 12:15:09;;;;;;;3.10;2.10;;;22.40;80.70;;;;;;5056940;28;20438;-69
2023/08/05 12:17:36;;;;;;;2.80;2.00;;;22.50;80.80;;;;;;5057489;28;20418;-68
2023/08/05 12:20:06;;;;;;;5.23;2.43;;;22.50;81.80;;;;;;5056811;28;20528;-68
2023/08/05 12:22:35;;;;;;;3.47;2.00;;;22.70;81.40;;;;;;5056790;28;20515;-68
2023/08/05 12:25:02;;;;;;;9.43;2.30;;;22.80;81.10;;;;;;5056701;28;20483;-68
2023/08/05 12:27:32;;;;;;;3.23;2.30;;;22.90;79.70;;;;;;5057018;28;20441;-68
2023/08/05 12:29:59;;;;;;;5.13;2.00;;;23.10;79.90;;;;;;5056838;28;20570;-68
2023/08/05 12:32:26;;;;;;;4.90;2.00;;;23.20;79.70;;;;;;5056915;28;20524;-68
2023/08/05 12:34:53;;;;;;;3.77;2.10;;;23.40;74.50;;;;;;5056912;28;20468;-68
2023/08/05 12:37:20;;;;;;;2.90;2.17;;;23.50;75.20;;;;;;5056856;28;20527;-68
2023/08/05 12:39:48;;;;;;;3.53;2.37;;;23.60;76.00;;;;;;5056754;28;20472;-68
2023/08/05 12:42:15;;;;;;;4.37;1.97;;;23.60;74.40;;;;;;5056400;28;20526;-68
2023/08/05 12:44:42;;;;;;;5.40;2.07;;;23.60;70.00;;;;;;5056638;28;20468;-69
2023/08/05 12:47:09;;;;;;;4.30;2.27;;;23.60;70.50;;;;;;5056711;28;20441;-68
2023/08/05 12:49:37;;;;;;;3.97;2.43;;;23.50;71.60;;;;;;5056215;28;20504;-68
2023/08/05 12:52:04;;;;;;;5.07;2.47;;;23.40;72.00;;;;;;5056494;28;20520;-68
2023/08/05 12:54:31;;;;;;;5.13;2.20;;;23.20;72.00;;;;;;5056574;28;20524;-69